Dewey, Illinois
Current Conditions -  °F | °C
As of 6:10 PM on Friday 21 Nov 2014 (Local Time) from KTIP Reporting Station
Overcast Overcast  
Wind Chill: 24°   Ceiling: 4100
Heat Index: 31°   Visibility: 10mi
Dew Point: 16°   Wind: 7mph
Humidity: 53%   Direction: 140°SE
Pressure: 30.33"   Gusts: NA
Location:  40.32°N, 88.28°W
Report Text: KTIP 220010Z AUTO 14006KT 10SM OVC041 00/M09 A3033 RMK AO2 T10051090
Loading
Personal Weather Stations






























Interactive Weather Map New forecast layout! Learn more

10-Day Weather Forecast

Advertisements
Track Severe Weather on mobile